Alyeska Resort
Max's Hourly Weather Roundup
ALYESKA_MAX 8/27/2016
Click Here for Graph

        DATE  TIME   Air  Wind  Wind  Wind  BATT   Rel
                    Temp   Spd   Dir  Gust  Volt  Hum%
                      F   MPH   AVG   MPH   AVG   AVG

   8/27/2016 04:00    51     3   155     7 12.84   100
   8/27/2016 03:00    51     5   147     8 12.86   100
   8/27/2016 02:00    53     1   290     3 12.89    98
   8/27/2016 01:00    54     0           2 12.91    96
   8/26/2016 24:00    53     3   145     7 12.94   100
   8/26/2016 23:00    53     3   219     7 12.99    98
   8/26/2016 22:00    54     1   286     5 13.09    98
   8/26/2016 21:00    53     2   181     5 13.31    98
   8/26/2016 20:00    56     2   180     5 13.75    98
   8/26/2016 19:00    58     1   219     6 13.81    96
   8/26/2016 18:00    57     1   206     5 13.75    99
   8/26/2016 17:00    56     1   203     7 13.72   100
   8/26/2016 16:00    53     1   152     7 13.70   100
   8/26/2016 15:00    51     2   197     5 13.67   100
   8/26/2016 14:00    49     2   173    10 13.69   100
   8/26/2016 13:00    48     2   137     7 13.61   100
   8/26/2016 12:00    48     5   140    13 13.59   100
   8/26/2016 11:00    46    10    89    17 13.60   100
   8/26/2016 10:00    46     6   128    13 13.63   100
   8/26/2016 09:00    46     6   174    11 13.58   100
   8/26/2016 08:00    46     4   198     9 13.02   100
   8/26/2016 07:00    47     4   197     9 12.79   100
   8/26/2016 06:00    48     3   141     7 12.80    99
   8/26/2016 05:00    48     2   225     8 12.81    99


Click Here for Graph